sensor_id;sensor_type;location;lat;lon;timestamp;pressure;altitude;pressure_sealevel;temperature;humidity
28921;BME280;16035;53.594;9.952;2023-07-20T00:00:11;101128.75;;;16.53;67.13
28921;BME280;16035;53.594;9.952;2023-07-20T00:02:13;101127.09;;;16.52;67.27
28921;BME280;16035;53.594;9.952;2023-07-20T00:04:14;101130.13;;;16.51;67.10
28921;BME280;16035;53.594;9.952;2023-07-20T00:06:14;101126.00;;;16.53;67.25
28921;BME280;16035;53.594;9.952;2023-07-20T00:08:15;101119.38;;;16.54;67.23
28921;BME280;16035;53.594;9.952;2023-07-20T00:10:15;101114.41;;;16.56;67.33
28921;BME280;16035;53.594;9.952;2023-07-20T00:12:15;101117.69;;;16.58;67.33
28921;BME280;16035;53.594;9.952;2023-07-20T00:14:16;101117.41;;;16.60;67.26
28921;BME280;16035;53.594;9.952;2023-07-20T00:16:16;101114.66;;;16.60;67.33
28921;BME280;16035;53.594;9.952;2023-07-20T00:18:16;101116.31;;;16.61;67.34
28921;BME280;16035;53.594;9.952;2023-07-20T00:20:16;101110.22;;;16.64;67.35
28921;BME280;16035;53.594;9.952;2023-07-20T00:22:17;101119.25;;;16.64;67.42
28921;BME280;16035;53.594;9.952;2023-07-20T00:24:17;101117.63;;;16.63;67.35
28921;BME280;16035;53.594;9.952;2023-07-20T00:26:17;101121.72;;;16.66;67.38
28921;BME280;16035;53.594;9.952;2023-07-20T00:28:17;101119.25;;;16.64;67.31
28921;BME280;16035;53.594;9.952;2023-07-20T00:30:18;101123.66;;;16.65;67.47
28921;BME280;16035;53.594;9.952;2023-07-20T00:32:18;101126.09;;;16.67;67.43
28921;BME280;16035;53.594;9.952;2023-07-20T00:34:18;101126.63;;;16.69;67.35
28921;BME280;16035;53.594;9.952;2023-07-20T00:36:18;101125.22;;;16.72;67.49
28921;BME280;16035;53.594;9.952;2023-07-20T00:38:19;101122.22;;;16.73;67.58
28921;BME280;16035;53.594;9.952;2023-07-20T00:40:19;101126.88;;;16.73;67.09
28921;BME280;16035;53.594;9.952;2023-07-20T00:42:19;101126.63;;;16.69;67.24
28921;BME280;16035;53.594;9.952;2023-07-20T00:44:19;101126.91;;;16.67;67.33
28921;BME280;16035;53.594;9.952;2023-07-20T00:46:20;101128.03;;;16.66;67.30
28921;BME280;16035;53.594;9.952;2023-07-20T00:48:22;101127.22;;;16.66;67.38
28921;BME280;16035;53.594;9.952;2023-07-20T00:50:23;101126.41;;;16.65;67.49
28921;BME280;16035;53.594;9.952;2023-07-20T00:52:24;101121.78;;;16.61;67.38
28921;BME280;16035;53.594;9.952;2023-07-20T00:54:25;101124.31;;;16.57;67.48
28921;BME280;16035;53.594;9.952;2023-07-20T00:56:25;101119.09;;;16.56;67.88
28921;BME280;16035;53.594;9.952;2023-07-20T00:58:26;101120.50;;;16.53;67.90
28921;BME280;16035;53.594;9.952;2023-07-20T01:00:27;101119.44;;;16.49;68.15
28921;BME280;16035;53.594;9.952;2023-07-20T01:02:27;101124.41;;;16.47;68.19
28921;BME280;16035;53.594;9.952;2023-07-20T01:04:28;101116.16;;;16.47;68.52
28921;BME280;16035;53.594;9.952;2023-07-20T01:08:53;101120.63;;;16.43;68.68
28921;BME280;16035;53.594;9.952;2023-07-20T01:11:02;101120.97;;;16.36;68.48
28921;BME280;16035;53.594;9.952;2023-07-20T01:13:06;101119.66;;;16.29;68.67
28921;BME280;16035;53.594;9.952;2023-07-20T01:15:07;101123.50;;;16.28;68.95
28921;BME280;16035;53.594;9.952;2023-07-20T01:17:08;101121.88;;;16.27;69.18
28921;BME280;16035;53.594;9.952;2023-07-20T01:19:08;101120.78;;;16.28;69.20
28921;BME280;16035;53.594;9.952;2023-07-20T01:21:09;101117.50;;;16.26;69.15
28921;BME280;16035;53.594;9.952;2023-07-20T01:29:42;101121.41;;;16.20;69.55
28921;BME280;16035;53.594;9.952;2023-07-20T01:31:44;101118.09;;;16.23;69.82
28921;BME280;16035;53.594;9.952;2023-07-20T01:33:46;101115.03;;;16.24;69.83
28921;BME280;16035;53.594;9.952;2023-07-20T01:35:52;101116.69;;;16.25;69.96
28921;BME280;16035;53.594;9.952;2023-07-20T01:37:54;101112.31;;;16.24;69.89
28921;BME280;16035;53.594;9.952;2023-07-20T01:39:55;101116.97;;;16.24;69.93
28921;BME280;16035;53.594;9.952;2023-07-20T01:41:55;101111.47;;;16.24;70.14
28921;BME280;16035;53.594;9.952;2023-07-20T01:43:58;101116.41;;;16.27;70.47
28921;BME280;16035;53.594;9.952;2023-07-20T01:45:59;101107.34;;;16.26;70.50
28921;BME280;16035;53.594;9.952;2023-07-20T01:47:59;101112.84;;;16.26;70.50
28921;BME280;16035;53.594;9.952;2023-07-20T01:49:59;101116.09;;;16.28;70.69
28921;BME280;16035;53.594;9.952;2023-07-20T01:52:00;101115.28;;;16.28;70.76
28921;BME280;16035;53.594;9.952;2023-07-20T01:54:00;101104.31;;;16.28;70.70
28921;BME280;16035;53.594;9.952;2023-07-20T01:56:00;101114.16;;;16.29;70.68
28921;BME280;16035;53.594;9.952;2023-07-20T01:58:00;101114.16;;;16.29;70.70
28921;BME280;16035;53.594;9.952;2023-07-20T02:00:01;101115.81;;;16.30;70.64
28921;BME280;16035;53.594;9.952;2023-07-20T02:02:02;101116.63;;;16.30;70.97
28921;BME280;16035;53.594;9.952;2023-07-20T02:04:05;101118.28;;;16.31;71.05
28921;BME280;16035;53.594;9.952;2023-07-20T02:06:05;101115.22;;;16.33;70.80
28921;BME280;16035;53.594;9.952;2023-07-20T02:08:05;101114.13;;;16.34;71.10
28921;BME280;16035;53.594;9.952;2023-07-20T02:10:06;101110.56;;;16.33;71.06
28921;BME280;16035;53.594;9.952;2023-07-20T02:12:06;101111.16;;;16.30;71.09
28921;BME280;16035;53.594;9.952;2023-07-20T02:14:06;101110.91;;;16.27;70.88
28921;BME280;16035;53.594;9.952;2023-07-20T02:16:07;101108.47;;;16.25;71.26
28921;BME280;16035;53.594;9.952;2023-07-20T02:18:07;101118.09;;;16.23;71.20
28921;BME280;16035;53.594;9.952;2023-07-20T02:20:07;101118.59;;;16.25;71.28
28921;BME280;16035;53.594;9.952;2023-07-20T02:22:11;101122.19;;;16.25;71.24
28921;BME280;16035;53.594;9.952;2023-07-20T02:24:11;101121.34;;;16.25;71.44
28921;BME280;16035;53.594;9.952;2023-07-20T02:26:12;101115.03;;;16.24;71.61
28921;BME280;16035;53.594;9.952;2023-07-20T02:28:13;101119.72;;;16.24;71.23
28921;BME280;16035;53.594;9.952;2023-07-20T02:30:13;101124.38;;;16.23;71.52
28921;BME280;16035;53.594;9.952;2023-07-20T02:32:14;101123.56;;;16.23;71.36
28921;BME280;16035;53.594;9.952;2023-07-20T02:34:14;101122.22;;;16.20;71.28
28921;BME280;16035;53.594;9.952;2023-07-20T02:36:14;101121.69;;;16.18;71.65
28921;BME280;16035;53.594;9.952;2023-07-20T02:38:14;101127.47;;;16.16;71.52
28921;BME280;16035;53.594;9.952;2023-07-20T02:40:14;101119.81;;;16.13;71.76
28921;BME280;16035;53.594;9.952;2023-07-20T02:42:15;101125.88;;;16.10;71.63
28921;BME280;16035;53.594;9.952;2023-07-20T02:44:15;101129.16;;;16.12;71.78
28921;BME280;16035;53.594;9.952;2023-07-20T02:46:15;101131.09;;;16.12;71.96
28921;BME280;16035;53.594;9.952;2023-07-20T02:48:15;101133.28;;;16.10;71.74
28921;BME280;16035;53.594;9.952;2023-07-20T02:50:15;101133.28;;;16.10;71.93
28921;BME280;16035;53.594;9.952;2023-07-20T02:52:16;101131.34;;;16.10;72.07
28921;BME280;16035;53.594;9.952;2023-07-20T02:54:16;101123.38;;;16.14;72.09
28921;BME280;16035;53.594;9.952;2023-07-20T02:56:16;101123.06;;;16.15;72.44
28921;BME280;16035;53.594;9.952;2023-07-20T02:58:18;101122.00;;;16.16;71.92
28921;BME280;16035;53.594;9.952;2023-07-20T03:00:18;101114.34;;;16.13;72.22
28921;BME280;16035;53.594;9.952;2023-07-20T03:02:19;101125.31;;;16.13;72.24
28921;BME280;16035;53.594;9.952;2023-07-20T03:04:19;101118.19;;;16.12;72.40
28921;BME280;16035;53.594;9.952;2023-07-20T03:06:19;101129.97;;;16.13;72.26
28921;BME280;16035;53.594;9.952;2023-07-20T03:08:20;101129.22;;;16.07;72.16
28921;BME280;16035;53.594;9.952;2023-07-20T03:10:20;101124.28;;;16.04;72.13
28921;BME280;16035;53.594;9.952;2023-07-20T03:12:20;101126.22;;;16.04;72.47
28921;BME280;16035;53.594;9.952;2023-07-20T03:14:21;101128.41;;;16.02;72.35
28921;BME280;16035;53.594;9.952;2023-07-20T03:16:21;101128.16;;;15.98;72.49
28921;BME280;16035;53.594;9.952;2023-07-20T03:18:21;101135.88;;;15.96;72.16
28921;BME280;16035;53.594;9.952;2023-07-20T03:20:21;101133.69;;;15.93;72.30
28921;BME280;16035;53.594;9.952;2023-07-20T03:22:22;101138.91;;;15.95;72.67
28921;BME280;16035;53.594;9.952;2023-07-20T03:24:22;101139.13;;;15.98;72.45
28921;BME280;16035;53.594;9.952;2023-07-20T03:26:23;101130.91;;;15.98;72.72
28921;BME280;16035;53.594;9.952;2023-07-20T03:28:23;101135.31;;;15.99;72.68
28921;BME280;16035;53.594;9.952;2023-07-20T03:30:24;101134.75;;;15.97;72.42
28921;BME280;16035;53.594;9.952;2023-07-20T03:32:25;101132.03;;;15.97;72.75
28921;BME280;16035;53.594;9.952;2023-07-20T03:34:25;101129.00;;;15.99;72.86
28921;BME280;16035;53.594;9.952;2023-07-20T03:36:26;101135.31;;;15.99;72.64
28921;BME280;16035;53.594;9.952;2023-07-20T03:38:26;101135.81;;;16.01;72.79
28921;BME280;16035;53.594;9.952;2023-07-20T03:40:27;101132.56;;;15.99;72.63
28921;BME280;16035;53.594;9.952;2023-07-20T03:42:27;101139.13;;;15.98;72.73
28921;BME280;16035;53.594;9.952;2023-07-20T03:44:27;101134.25;;;15.95;72.62
28921;BME280;16035;53.594;9.952;2023-07-20T03:46:29;101131.78;;;15.93;72.78
28921;BME280;16035;53.594;9.952;2023-07-20T03:48:29;101139.72;;;15.95;72.96
28921;BME280;16035;53.594;9.952;2023-07-20T03:50:29;101130.41;;;15.96;72.98
28921;BME280;16035;53.594;9.952;2023-07-20T03:52:30;101137.50;;;15.97;72.83
28921;BME280;16035;53.594;9.952;2023-07-20T03:54:30;101139.13;;;15.98;72.90
28921;BME280;16035;53.594;9.952;2023-07-20T03:56:30;101138.06;;;15.99;73.07
28921;BME280;16035;53.594;9.952;2023-07-20T03:58:34;101149.28;;;15.98;73.01
28921;BME280;16035;53.594;9.952;2023-07-20T04:00:34;101139.72;;;15.95;72.69
28921;BME280;16035;53.594;9.952;2023-07-20T04:02:35;101141.09;;;15.92;72.84
28921;BME280;16035;53.594;9.952;2023-07-20T04:04:35;101139.19;;;15.93;72.88
28921;BME280;16035;53.594;9.952;2023-07-20T04:06:35;101138.38;;;15.92;73.15
28921;BME280;16035;53.594;9.952;2023-07-20T04:08:36;101142.47;;;15.95;73.26
28921;BME280;16035;53.594;9.952;2023-07-20T04:10:37;101149.88;;;15.95;73.00
28921;BME280;16035;53.594;9.952;2023-07-20T04:12:37;101146.03;;;15.96;73.16
28921;BME280;16035;53.594;9.952;2023-07-20T04:14:37;101151.81;;;15.94;73.02
28921;BME280;16035;53.594;9.952;2023-07-20T04:16:37;101146.06;;;15.90;72.81
28921;BME280;16035;53.594;9.952;2023-07-20T04:18:38;101158.97;;;15.90;73.41
28921;BME280;16035;53.594;9.952;2023-07-20T04:20:38;101153.75;;;15.88;73.17
28921;BME280;16035;53.594;9.952;2023-07-20T04:22:38;101144.16;;;15.91;73.49
28921;BME280;16035;53.594;9.952;2023-07-20T04:24:38;101147.94;;;15.95;73.46
28921;BME280;16035;53.594;9.952;2023-07-20T04:26:39;101152.03;;;15.98;73.43
28921;BME280;16035;53.594;9.952;2023-07-20T04:28:39;101155.81;;;16.02;73.49
28921;BME280;16035;53.594;9.952;2023-07-20T04:30:42;101157.19;;;16.04;73.58
28921;BME280;16035;53.594;9.952;2023-07-20T04:32:43;101151.16;;;16.07;73.50
28921;BME280;16035;53.594;9.952;2023-07-20T04:34:45;101159.88;;;16.09;73.36
28921;BME280;16035;53.594;9.952;2023-07-20T04:36:45;101160.41;;;16.11;73.66
28921;BME280;16035;53.594;9.952;2023-07-20T04:38:46;101152.41;;;16.15;73.28
28921;BME280;16035;53.594;9.952;2023-07-20T04:40:49;101154.34;;;16.14;73.28
28921;BME280;16035;53.594;9.952;2023-07-20T04:42:50;101147.25;;;16.13;73.39
28921;BME280;16035;53.594;9.952;2023-07-20T04:44:50;101159.53;;;16.16;73.46
28921;BME280;16035;53.594;9.952;2023-07-20T04:46:50;101154.31;;;16.20;73.72
28921;BME280;16035;53.594;9.952;2023-07-20T04:48:50;101156.78;;;16.21;73.38
28921;BME280;16035;53.594;9.952;2023-07-20T04:50:50;101148.81;;;16.20;73.45
28921;BME280;16035;53.594;9.952;2023-07-20T04:52:51;101154.31;;;16.20;73.72
28921;BME280;16035;53.594;9.952;2023-07-20T04:54:52;101152.97;;;16.17;73.40
28921;BME280;16035;53.594;9.952;2023-07-20T04:56:52;101154.06;;;16.16;73.44
28921;BME280;16035;53.594;9.952;2023-07-20T04:58:53;101146.66;;;16.16;73.47
28921;BME280;16035;53.594;9.952;2023-07-20T05:00:53;101152.66;;;16.18;73.62
28921;BME280;16035;53.594;9.952;2023-07-20T05:02:53;101154.31;;;16.20;73.38
28921;BME280;16035;53.594;9.952;2023-07-20T05:04:53;101155.66;;;16.22;73.54
28921;BME280;16035;53.594;9.952;2023-07-20T05:06:54;101160.84;;;16.24;73.46
28921;BME280;16035;53.594;9.952;2023-07-20T05:08:54;101162.47;;;16.25;73.40
28921;BME280;16035;53.594;9.952;2023-07-20T05:10:54;101149.88;;;16.24;73.48
28921;BME280;16035;53.594;9.952;2023-07-20T05:12:54;101155.91;;;16.26;73.26
28921;BME280;16035;53.594;9.952;2023-07-20T05:14:54;101153.97;;;16.26;73.27
28921;BME280;16035;53.594;9.952;2023-07-20T05:16:55;101155.59;;;16.27;73.35
28921;BME280;16035;53.594;9.952;2023-07-20T05:18:55;101155.31;;;16.29;73.35
28921;BME280;16035;53.594;9.952;2023-07-20T05:20:57;101156.97;;;16.30;73.47
28921;BME280;16035;53.594;9.952;2023-07-20T05:22:57;101156.66;;;16.31;73.59
28921;BME280;16035;53.594;9.952;2023-07-20T05:24:57;101161.03;;;16.32;73.42
28921;BME280;16035;53.594;9.952;2023-07-20T05:26:58;101158.00;;;16.34;73.42
28921;BME280;16035;53.594;9.952;2023-07-20T05:28:58;101151.13;;;16.36;73.41
28921;BME280;16035;53.594;9.952;2023-07-20T05:30:59;101155.78;;;16.36;73.30
28921;BME280;16035;53.594;9.952;2023-07-20T05:32:59;101153.88;;;16.36;73.56
28921;BME280;16035;53.594;9.952;2023-07-20T05:34:59;101148.91;;;16.38;73.58
28921;BME280;16035;53.594;9.952;2023-07-20T05:37:00;101150.81;;;16.43;73.75
28921;BME280;16035;53.594;9.952;2023-07-20T05:39:00;101149.09;;;16.47;73.40
28921;BME280;16035;53.594;9.952;2023-07-20T05:41:00;101157.31;;;16.47;73.47
28921;BME280;16035;53.594;9.952;2023-07-20T05:43:01;101162.53;;;16.49;73.55
28921;BME280;16035;53.594;9.952;2023-07-20T05:45:02;101153.69;;;16.52;73.69
28921;BME280;16035;53.594;9.952;2023-07-20T05:47:02;101156.97;;;16.54;73.61
28921;BME280;16035;53.594;9.952;2023-07-20T05:49:02;101150.63;;;16.58;73.73
28921;BME280;16035;53.594;9.952;2023-07-20T05:51:03;101148.13;;;16.62;73.73
28921;BME280;16035;53.594;9.952;2023-07-20T05:53:03;101148.38;;;16.65;73.68
28921;BME280;16035;53.594;9.952;2023-07-20T05:55:03;101162.03;;;16.71;73.73
28921;BME280;16035;53.594;9.952;2023-07-20T05:57:04;101159.81;;;16.73;73.79
28921;BME280;16035;53.594;9.952;2023-07-20T05:59:04;101160.34;;;16.75;73.57
28921;BME280;16035;53.594;9.952;2023-07-20T06:01:04;101162.22;;;16.79;73.82
28921;BME280;16035;53.594;9.952;2023-07-20T06:03:06;101160.81;;;16.82;73.89
28921;BME280;16035;53.594;9.952;2023-07-20T06:05:06;101163.28;;;16.83;73.61
28921;BME280;16035;53.594;9.952;2023-07-20T06:07:09;101160.81;;;16.82;73.44
28921;BME280;16035;53.594;9.952;2023-07-20T06:09:09;101165.19;;;16.83;73.61
28921;BME280;16035;53.594;9.952;2023-07-20T06:11:12;101159.41;;;16.84;73.25
28921;BME280;16035;53.594;9.952;2023-07-20T06:13:12;101169.59;;;16.84;73.52
28921;BME280;16035;53.594;9.952;2023-07-20T06:15:24;101166.84;;;16.84;73.60
28921;BME280;16035;53.594;9.952;2023-07-20T06:17:25;101162.97;;;16.85;73.35
28921;BME280;16035;53.594;9.952;2023-07-20T06:19:25;101174.78;;;16.85;73.58
28921;BME280;16035;53.594;9.952;2023-07-20T06:21:25;101171.22;;;16.85;73.31
28921;BME280;16035;53.594;9.952;2023-07-20T06:23:25;101171.16;;;16.90;73.23
28921;BME280;16035;53.594;9.952;2023-07-20T06:25:26;101168.09;;;16.91;72.88
28921;BME280;16035;53.594;9.952;2023-07-20T06:27:26;101173.59;;;16.91;72.49
28921;BME280;16035;53.594;9.952;2023-07-20T06:29:26;101168.91;;;16.92;72.53
28921;BME280;16035;53.594;9.952;2023-07-20T06:31:26;101172.66;;;17.01;72.78
28921;BME280;16035;53.594;9.952;2023-07-20T06:33:26;101176.91;;;17.12;72.65
28921;BME280;16035;53.594;9.952;2023-07-20T06:35:27;101175.13;;;17.22;72.51
28921;BME280;16035;53.594;9.952;2023-07-20T06:37:27;101181.38;;;17.27;72.48
28921;BME280;16035;53.594;9.952;2023-07-20T06:39:27;101177.97;;;17.35;72.02
28921;BME280;16035;53.594;9.952;2023-07-20T06:41:27;101177.69;;;17.37;71.61
28921;BME280;16035;53.594;9.952;2023-07-20T06:43:27;101179.91;;;17.35;71.50
28921;BME280;16035;53.594;9.952;2023-07-20T06:45:28;101168.41;;;17.33;71.66
28921;BME280;16035;53.594;9.952;2023-07-20T06:47:28;101166.47;;;17.33;71.62
28921;BME280;16035;53.594;9.952;2023-07-20T06:49:28;101173.91;;;17.33;71.25
28921;BME280;16035;53.594;9.952;2023-07-20T06:51:28;101172.47;;;17.35;71.09
28921;BME280;16035;53.594;9.952;2023-07-20T06:53:29;101171.09;;;17.38;71.42
28921;BME280;16035;53.594;9.952;2023-07-20T06:55:29;101180.38;;;17.42;70.91
28921;BME280;16035;53.594;9.952;2023-07-20T06:57:29;101177.09;;;17.40;70.88
28921;BME280;16035;53.594;9.952;2023-07-20T06:59:30;101178.19;;;17.39;70.99
28921;BME280;16035;53.594;9.952;2023-07-20T07:01:30;101184.50;;;17.39;70.62
28921;BME280;16035;53.594;9.952;2023-07-20T07:03:30;101175.91;;;17.46;71.04
28921;BME280;16035;53.594;9.952;2023-07-20T07:05:30;101168.91;;;17.54;70.88
28921;BME280;16035;53.594;9.952;2023-07-20T07:07:31;101163.06;;;17.60;70.85
28921;BME280;16035;53.594;9.952;2023-07-20T07:09:31;101165.97;;;17.69;70.54
28921;BME280;16035;53.594;9.952;2023-07-20T07:11:31;101164.69;;;17.80;70.65
28921;BME280;16035;53.594;9.952;2023-07-20T07:13:31;101165.66;;;17.89;70.31
28921;BME280;16035;53.594;9.952;2023-07-20T07:15:31;101168.84;;;17.97;70.04
28921;BME280;16035;53.594;9.952;2023-07-20T07:17:32;101174.78;;;18.04;69.63
28921;BME280;16035;53.594;9.952;2023-07-20T07:19:32;101172.03;;;18.04;68.35
28921;BME280;16035;53.594;9.952;2023-07-20T07:21:33;101172.22;;;18.07;67.72
28921;BME280;16035;53.594;9.952;2023-07-20T07:23:33;101167.75;;;18.11;66.43
28921;BME280;16035;53.594;9.952;2023-07-20T07:25:33;101165.81;;;18.12;67.05
28921;BME280;16035;53.594;9.952;2023-07-20T07:27:33;101163.88;;;18.12;67.45
28921;BME280;16035;53.594;9.952;2023-07-20T07:29:34;101157.41;;;18.22;67.66
28921;BME280;16035;53.594;9.952;2023-07-20T07:31:34;101162.16;;;18.16;67.28
28921;BME280;16035;53.594;9.952;2023-07-20T07:33:35;101175.06;;;18.02;66.36
28921;BME280;16035;53.594;9.952;2023-07-20T07:35:36;101183.94;;;17.80;65.43
28921;BME280;16035;53.594;9.952;2023-07-20T07:37:36;101179.47;;;17.65;65.73
28921;BME280;16035;53.594;9.952;2023-07-20T07:39:37;101189.03;;;17.49;65.95
28921;BME280;16035;53.594;9.952;2023-07-20T07:41:37;101190.75;;;17.45;66.27
28921;BME280;16035;53.594;9.952;2023-07-20T07:43:37;101187.94;;;17.50;66.33
28921;BME280;16035;53.594;9.952;2023-07-20T07:45:38;101191.13;;;17.57;65.70
28921;BME280;16035;53.594;9.952;2023-07-20T07:47:39;101177.22;;;17.67;65.93
28921;BME280;16035;53.594;9.952;2023-07-20T07:49:39;101188.03;;;17.83;66.29
28921;BME280;16035;53.594;9.952;2023-07-20T07:51:39;101174.84;;;17.99;65.63
28921;BME280;16035;53.594;9.952;2023-07-20T07:53:39;101180.50;;;18.21;65.75
28921;BME280;16035;53.594;9.952;2023-07-20T07:55:40;101177.28;;;18.33;65.44
28921;BME280;16035;53.594;9.952;2023-07-20T07:57:41;101187.06;;;18.39;65.33
28921;BME280;16035;53.594;9.952;2023-07-20T07:59:41;101180.53;;;18.35;64.62
28921;BME280;16035;53.594;9.952;2023-07-20T08:01:41;101191.97;;;18.28;63.97
28921;BME280;16035;53.594;9.952;2023-07-20T08:03:41;101192.94;;;18.18;62.06
28921;BME280;16035;53.594;9.952;2023-07-20T08:05:42;101184.47;;;18.15;63.03
28921;BME280;16035;53.594;9.952;2023-07-20T08:07:42;101185.75;;;18.36;63.98
28921;BME280;16035;53.594;9.952;2023-07-20T08:09:43;101186.09;;;18.49;64.30
28921;BME280;16035;53.594;9.952;2023-07-20T08:11:43;101178.28;;;18.83;64.14
28921;BME280;16035;53.594;9.952;2023-07-20T08:13:43;101198.41;;;19.11;61.90
28921;BME280;16035;53.594;9.952;2023-07-20T08:15:45;101181.41;;;19.32;60.18
28921;BME280;16035;53.594;9.952;2023-07-20T08:17:48;101178.81;;;19.49;60.54
28921;BME280;16035;53.594;9.952;2023-07-20T08:19:51;101189.44;;;19.56;60.72
28921;BME280;16035;53.594;9.952;2023-07-20T08:21:51;101192.13;;;19.47;60.45
28921;BME280;16035;53.594;9.952;2023-07-20T08:23:51;101196.94;;;19.28;59.55
28921;BME280;16035;53.594;9.952;2023-07-20T08:25:52;101190.53;;;19.05;58.93
28921;BME280;16035;53.594;9.952;2023-07-20T08:27:52;101189.13;;;18.93;59.98
28921;BME280;16035;53.594;9.952;2023-07-20T08:29:52;101185.72;;;19.10;60.80
28921;BME280;16035;53.594;9.952;2023-07-20T08:31:52;101188.34;;;19.43;60.86
28921;BME280;16035;53.594;9.952;2023-07-20T08:33:52;101179.81;;;19.67;59.37
28921;BME280;16035;53.594;9.952;2023-07-20T08:35:53;101192.44;;;20.04;60.16
28921;BME280;16035;53.594;9.952;2023-07-20T08:37:53;101189.66;;;20.49;59.92
28921;BME280;16035;53.594;9.952;2023-07-20T08:39:53;101199.94;;;20.57;56.73
28921;BME280;16035;53.594;9.952;2023-07-20T08:41:54;101212.38;;;20.24;56.47
28921;BME280;16035;53.594;9.952;2023-07-20T08:43:55;101210.72;;;19.78;57.33
28921;BME280;16035;53.594;9.952;2023-07-20T08:45:56;101213.66;;;19.31;58.15
28921;BME280;16035;53.594;9.952;2023-07-20T08:48:01;101211.75;;;18.90;58.85
28921;BME280;16035;53.594;9.952;2023-07-20T08:50:04;101217.00;;;18.59;60.01
28921;BME280;16035;53.594;9.952;2023-07-20T08:52:06;101216.44;;;18.43;61.10
28921;BME280;16035;53.594;9.952;2023-07-20T08:54:07;101219.59;;;18.37;61.30
28921;BME280;16035;53.594;9.952;2023-07-20T08:56:08;101214.50;;;18.77;62.71
28921;BME280;16035;53.594;9.952;2023-07-20T08:58:11;101207.19;;;19.63;62.67
28921;BME280;16035;53.594;9.952;2023-07-20T09:00:12;101204.59;;;20.48;62.28
28921;BME280;16035;53.594;9.952;2023-07-20T09:02:14;101194.13;;;21.16;60.92
28921;BME280;16035;53.594;9.952;2023-07-20T09:04:16;101198.16;;;21.58;59.86
28921;BME280;16035;53.594;9.952;2023-07-20T09:06:17;101201.22;;;22.17;59.13
28921;BME280;16035;53.594;9.952;2023-07-20T09:08:17;101202.22;;;22.77;58.58
28921;BME280;16035;53.594;9.952;2023-07-20T09:10:17;101190.91;;;23.20;57.20
28921;BME280;16035;53.594;9.952;2023-07-20T09:12:17;101197.81;;;22.76;56.29
28921;BME280;16035;53.594;9.952;2023-07-20T09:14:17;101194.19;;;22.46;57.07
28921;BME280;16035;53.594;9.952;2023-07-20T09:16:18;101193.38;;;22.92;57.82
28921;BME280;16035;53.594;9.952;2023-07-20T09:18:24;101192.72;;;23.46;56.10
28921;BME280;16035;53.594;9.952;2023-07-20T09:20:25;101200.56;;;23.44;53.29
28921;BME280;16035;53.594;9.952;2023-07-20T09:22:29;101209.72;;;22.68;53.99
28921;BME280;16035;53.594;9.952;2023-07-20T09:24:29;101234.09;;;21.67;53.54
28921;BME280;16035;53.594;9.952;2023-07-20T09:26:30;101237.91;;;20.83;54.67
28921;BME280;16035;53.594;9.952;2023-07-20T09:28:31;101236.09;;;20.25;56.49
28921;BME280;16035;53.594;9.952;2023-07-20T09:30:41;101234.19;;;19.89;57.38
28921;BME280;16035;53.594;9.952;2023-07-20T09:32:45;101238.00;;;19.79;58.39
28921;BME280;16035;53.594;9.952;2023-07-20T09:34:46;101232.91;;;19.73;58.56
28921;BME280;16035;53.594;9.952;2023-07-20T09:36:46;101240.00;;;19.65;58.91
28921;BME280;16035;53.594;9.952;2023-07-20T09:38:46;101235.97;;;19.57;59.19
28921;BME280;16035;53.594;9.952;2023-07-20T09:40:47;101234.59;;;19.96;60.16
28921;BME280;16035;53.594;9.952;2023-07-20T09:42:47;101226.53;;;20.53;58.84
28921;BME280;16035;53.594;9.952;2023-07-20T09:44:48;101222.91;;;20.75;58.27
28921;BME280;16035;53.594;9.952;2023-07-20T09:46:48;101222.19;;;20.92;58.11
28921;BME280;16035;53.594;9.952;2023-07-20T09:48:52;101225.63;;;21.06;57.88
28921;BME280;16035;53.594;9.952;2023-07-20T09:50:55;101219.84;;;21.25;57.39
28921;BME280;16035;53.594;9.952;2023-07-20T09:52:55;101217.81;;;21.74;56.62
28921;BME280;16035;53.594;9.952;2023-07-20T09:54:57;101226.25;;;22.56;56.23
28921;BME280;16035;53.594;9.952;2023-07-20T09:56:57;101220.66;;;23.11;54.68
28921;BME280;16035;53.594;9.952;2023-07-20T09:58:58;101219.38;;;23.59;53.10
28921;BME280;16035;53.594;9.952;2023-07-20T10:00:58;101204.03;;;24.04;53.14
28921;BME280;16035;53.594;9.952;2023-07-20T10:03:03;101210.69;;;24.57;53.14
28921;BME280;16035;53.594;9.952;2023-07-20T10:05:03;101201.94;;;24.91;51.58
28921;BME280;16035;53.594;9.952;2023-07-20T10:07:05;101206.22;;;25.01;49.22
28921;BME280;16035;53.594;9.952;2023-07-20T10:09:07;101211.34;;;25.11;48.62
28921;BME280;16035;53.594;9.952;2023-07-20T10:11:10;101198.72;;;25.14;48.46
28921;BME280;16035;53.594;9.952;2023-07-20T10:13:14;101196.72;;;25.27;48.17
28921;BME280;16035;53.594;9.952;2023-07-20T10:15:19;101193.59;;;25.28;46.62
28921;BME280;16035;53.594;9.952;2023-07-20T10:17:21;101189.66;;;25.29;46.37
28921;BME280;16035;53.594;9.952;2023-07-20T10:21:40;101200.69;;;26.06;44.95
28921;BME280;16035;53.594;9.952;2023-07-20T10:23:42;101192.94;;;25.59;44.45
28921;BME280;16035;53.594;9.952;2023-07-20T10:25:42;101207.22;;;24.27;44.13
28921;BME280;16035;53.594;9.952;2023-07-20T10:27:43;101207.19;;;24.14;46.63
28921;BME280;16035;53.594;9.952;2023-07-20T10:29:44;101204.53;;;24.39;46.66
28921;BME280;16035;53.594;9.952;2023-07-20T10:31:45;101206.88;;;24.61;44.75
28921;BME280;16035;53.594;9.952;2023-07-20T10:33:45;101204.56;;;25.00;44.49
28921;BME280;16035;53.594;9.952;2023-07-20T10:36:00;101192.78;;;25.15;43.42
28921;BME280;16035;53.594;9.952;2023-07-20T10:38:01;101195.25;;;25.57;43.34
28921;BME280;16035;53.594;9.952;2023-07-20T10:40:23;101193.25;;;25.70;43.17
28921;BME280;16035;53.594;9.952;2023-07-20T10:42:22;101197.59;;;25.55;42.22